< < Back
Terminal Aerodrome Forecast


Current Version              Previous Versions:   1  2  3  4  5  6  7  8  9  

Terminal Aerodrome Forecast

711
FTUS42 KFFC 251731
TAFAHN
TAF
KAHN 251731Z 2518/2618 11006KT P6SM BKN045
     FM252100 12006KT P6SM VCSH BKN045
      TEMPO 2522/2524 3SM -TSRA BKN025CB
     FM260100 12005KT P6SM VCSH SCT025 BKN040
     FM260600 12005KT P6SM VCSH BKN015
     FM260800 12004KT 4SM BR BKN007
     FM261400 13004KT 6SM BR OVC015=



Latest METAR

774
SAUS70 KWBC 260500
MTRAHN
METAR KAHN 260451Z AUTO 00000KT 10SM SCT016 BKN023 OVC031 21/19 A3024
RMK AO2 SLP232 T02110194 403000150


USA.gov is the U.S. government's official web portal to all federal, state and local government web resources and services.